SPFGS EPMO-EPGY
Flight info
| Callsign | SPFGS |
|---|---|
| Flight time | 0h 28m |
| Altitude | 1500 |
| Route | DCT EPMOI DCT EPMOY DCT |
| Aircraft | M7/L-SY/S |
Departure
| Time | 2026-05-07 19:26 |
|---|---|
| Airport | Warsaw Modlin Airport (EPMO) |
Arrival
| Time | 2026-05-07 19:55 |
|---|---|
| Airport | Grądy Airfield (EPGY) |
| Time | Latitude | Longitude | Altitude | Speed | Heading |
|---|---|---|---|---|---|
| 2026-05-07 19:16 | 52.44854 | 20.66869 | 333 ft | 0 kts | 339° |
| 2026-05-07 19:21 | 52.44855 | 20.66868 | 333 ft | 0 kts | 338° |
| 2026-05-07 19:21 | 52.44857 | 20.66867 | 332 ft | 2 kts | 338° |
| 2026-05-07 19:21 | 52.44885 | 20.66851 | 332 ft | 0 kts | 351° |
| 2026-05-07 19:22 | 52.44894 | 20.66848 | 333 ft | 3 kts | 352° |
| 2026-05-07 19:22 | 52.44922 | 20.66842 | 333 ft | 7 kts | 356° |
| 2026-05-07 19:22 | 52.44948 | 20.66915 | 333 ft | 11 kts | 80° |
| 2026-05-07 19:23 | 52.44972 | 20.67054 | 332 ft | 15 kts | 40° |
| 2026-05-07 19:23 | 52.45073 | 20.67066 | 332 ft | 14 kts | 351° |
| 2026-05-07 19:23 | 52.45159 | 20.67043 | 333 ft | 11 kts | 347° |
| 2026-05-07 19:23 | 52.45216 | 20.67017 | 333 ft | 11 kts | 343° |
| 2026-05-07 19:24 | 52.45273 | 20.66987 | 332 ft | 13 kts | 334° |
| 2026-05-07 19:24 | 52.45288 | 20.66945 | 334 ft | 0 kts | 263° |
| 2026-05-07 19:25 | 52.45288 | 20.66944 | 334 ft | 1 kts | 263° |
| 2026-05-07 19:25 | 52.45270 | 20.66683 | 333 ft | 57 kts | 257° |
| 2026-05-07 19:25 | 52.45202 | 20.65892 | 502 ft | 82 kts | 269° |
| 2026-05-07 19:26 | 52.45128 | 20.64899 | 769 ft | 92 kts | 265° |
| 2026-05-07 19:26 | 52.45029 | 20.63829 | 1028 ft | 99 kts | 265° |
| 2026-05-07 19:26 | 52.45221 | 20.62818 | 1265 ft | 99 kts | 327° |
| 2026-05-07 19:26 | 52.45879 | 20.62781 | 1448 ft | 101 kts | 25° |
| 2026-05-07 19:27 | 52.46448 | 20.63516 | 1502 ft | 105 kts | 42° |
| 2026-05-07 19:27 | 52.46986 | 20.64337 | 1504 ft | 107 kts | 41° |
| 2026-05-07 19:27 | 52.47532 | 20.65158 | 1521 ft | 108 kts | 40° |
| 2026-05-07 19:27 | 52.48116 | 20.65958 | 1518 ft | 109 kts | 37° |
| 2026-05-07 19:28 | 52.48744 | 20.66622 | 1507 ft | 110 kts | 31° |
| 2026-05-07 19:28 | 52.49407 | 20.67282 | 1451 ft | 109 kts | 31° |
| 2026-05-07 19:28 | 52.50033 | 20.67968 | 1451 ft | 108 kts | 33° |
| 2026-05-07 19:28 | 52.50646 | 20.68664 | 1451 ft | 106 kts | 34° |
| 2026-05-07 19:29 | 52.51254 | 20.69375 | 1448 ft | 108 kts | 35° |
| 2026-05-07 19:29 | 52.51862 | 20.70087 | 1448 ft | 107 kts | 34° |
| 2026-05-07 19:29 | 52.52464 | 20.70797 | 1446 ft | 106 kts | 36° |
| 2026-05-07 19:29 | 52.53064 | 20.71507 | 1446 ft | 107 kts | 35° |
| 2026-05-07 19:30 | 52.53666 | 20.72219 | 1444 ft | 106 kts | 36° |
| 2026-05-07 19:30 | 52.54266 | 20.72929 | 1442 ft | 107 kts | 35° |
| 2026-05-07 19:30 | 52.54868 | 20.73647 | 1441 ft | 107 kts | 35° |
| 2026-05-07 19:30 | 52.55470 | 20.74355 | 1444 ft | 106 kts | 36° |
| 2026-05-07 19:31 | 52.56070 | 20.75068 | 1443 ft | 107 kts | 34° |
| 2026-05-07 19:31 | 52.56671 | 20.75783 | 1437 ft | 106 kts | 34° |
| 2026-05-07 19:31 | 52.57272 | 20.76494 | 1446 ft | 107 kts | 36° |
| 2026-05-07 19:31 | 52.57874 | 20.77224 | 1439 ft | 107 kts | 39° |
| 2026-05-07 19:32 | 52.58237 | 20.78272 | 1431 ft | 107 kts | 69° |
| 2026-05-07 19:32 | 52.58534 | 20.79390 | 1426 ft | 106 kts | 63° |
| 2026-05-07 19:32 | 52.58821 | 20.80505 | 1426 ft | 106 kts | 65° |
| 2026-05-07 19:32 | 52.59115 | 20.81622 | 1427 ft | 107 kts | 63° |
| 2026-05-07 19:33 | 52.59407 | 20.82737 | 1423 ft | 106 kts | 64° |
| 2026-05-07 19:33 | 52.59696 | 20.83850 | 1435 ft | 107 kts | 63° |
| 2026-05-07 19:33 | 52.59986 | 20.84977 | 1425 ft | 107 kts | 65° |
| 2026-05-07 19:33 | 52.60284 | 20.86099 | 1433 ft | 107 kts | 64° |
| 2026-05-07 19:34 | 52.60576 | 20.87223 | 1433 ft | 105 kts | 64° |
| 2026-05-07 19:34 | 52.60864 | 20.88333 | 1431 ft | 106 kts | 64° |
| 2026-05-07 19:34 | 52.61157 | 20.89451 | 1435 ft | 107 kts | 64° |
| 2026-05-07 19:34 | 52.61451 | 20.90584 | 1438 ft | 108 kts | 64° |
| 2026-05-07 19:35 | 52.61744 | 20.91715 | 1424 ft | 107 kts | 64° |
| 2026-05-07 19:35 | 52.62037 | 20.92841 | 1423 ft | 107 kts | 65° |
| 2026-05-07 19:35 | 52.62328 | 20.93959 | 1431 ft | 106 kts | 64° |
| 2026-05-07 19:35 | 52.62622 | 20.95087 | 1432 ft | 108 kts | 65° |
| 2026-05-07 19:36 | 52.62914 | 20.96216 | 1430 ft | 107 kts | 65° |
| 2026-05-07 19:36 | 52.63204 | 20.97333 | 1431 ft | 108 kts | 65° |
| 2026-05-07 19:36 | 52.63498 | 20.98465 | 1429 ft | 107 kts | 65° |
| 2026-05-07 19:36 | 52.63795 | 20.99611 | 1428 ft | 107 kts | 64° |
| 2026-05-07 19:37 | 52.64083 | 21.00725 | 1423 ft | 107 kts | 65° |
| 2026-05-07 19:37 | 52.64376 | 21.01859 | 1431 ft | 108 kts | 65° |
| 2026-05-07 19:37 | 52.64676 | 21.03010 | 1424 ft | 108 kts | 64° |
| 2026-05-07 19:37 | 52.64964 | 21.04126 | 1421 ft | 107 kts | 65° |
| 2026-05-07 19:38 | 52.65252 | 21.05246 | 1415 ft | 106 kts | 64° |
| 2026-05-07 19:38 | 52.65544 | 21.06372 | 1416 ft | 108 kts | 65° |
| 2026-05-07 19:38 | 52.65836 | 21.07503 | 1421 ft | 107 kts | 64° |
| 2026-05-07 19:38 | 52.66128 | 21.08631 | 1418 ft | 107 kts | 65° |
| 2026-05-07 19:39 | 52.66419 | 21.09758 | 1416 ft | 107 kts | 65° |
| 2026-05-07 19:39 | 52.66710 | 21.10883 | 1420 ft | 107 kts | 64° |
| 2026-05-07 19:39 | 52.67000 | 21.12011 | 1413 ft | 106 kts | 64° |
| 2026-05-07 19:39 | 52.67287 | 21.13124 | 1413 ft | 105 kts | 64° |
| 2026-05-07 19:40 | 52.67573 | 21.14243 | 1414 ft | 106 kts | 64° |
| 2026-05-07 19:40 | 52.67863 | 21.15368 | 1412 ft | 107 kts | 65° |
| 2026-05-07 19:40 | 52.68154 | 21.16497 | 1417 ft | 107 kts | 64° |
| 2026-05-07 19:40 | 52.68445 | 21.17624 | 1429 ft | 107 kts | 65° |
| 2026-05-07 19:41 | 52.68738 | 21.18764 | 1425 ft | 108 kts | 65° |
| 2026-05-07 19:41 | 52.69027 | 21.19898 | 1425 ft | 106 kts | 65° |
| 2026-05-07 19:41 | 52.69319 | 21.21031 | 1425 ft | 108 kts | 64° |
| 2026-05-07 19:41 | 52.69610 | 21.22165 | 1426 ft | 107 kts | 64° |
| 2026-05-07 19:42 | 52.69902 | 21.23299 | 1427 ft | 108 kts | 65° |
| 2026-05-07 19:42 | 52.70191 | 21.24433 | 1421 ft | 107 kts | 64° |
| 2026-05-07 19:42 | 52.70479 | 21.25553 | 1416 ft | 106 kts | 64° |
| 2026-05-07 19:42 | 52.70765 | 21.26671 | 1421 ft | 106 kts | 65° |
| 2026-05-07 19:43 | 52.71051 | 21.27791 | 1415 ft | 106 kts | 64° |
| 2026-05-07 19:43 | 52.71337 | 21.28905 | 1414 ft | 105 kts | 65° |
| 2026-05-07 19:43 | 52.71623 | 21.30017 | 1419 ft | 106 kts | 64° |
| 2026-05-07 19:43 | 52.71910 | 21.31144 | 1419 ft | 107 kts | 65° |
| 2026-05-07 19:44 | 52.72201 | 21.32283 | 1416 ft | 108 kts | 64° |
| 2026-05-07 19:44 | 52.72489 | 21.33413 | 1426 ft | 107 kts | 64° |
| 2026-05-07 19:44 | 52.72782 | 21.34558 | 1420 ft | 109 kts | 64° |
| 2026-05-07 19:44 | 52.73074 | 21.35709 | 1425 ft | 109 kts | 65° |
| 2026-05-07 19:45 | 52.73369 | 21.36861 | 1425 ft | 109 kts | 65° |
| 2026-05-07 19:45 | 52.73662 | 21.38010 | 1420 ft | 108 kts | 65° |
| 2026-05-07 19:45 | 52.73950 | 21.39143 | 1430 ft | 107 kts | 65° |
| 2026-05-07 19:45 | 52.74241 | 21.40290 | 1429 ft | 110 kts | 65° |
| 2026-05-07 19:46 | 52.74536 | 21.41446 | 1422 ft | 108 kts | 64° |
| 2026-05-07 19:46 | 52.74827 | 21.42591 | 1416 ft | 109 kts | 65° |
| 2026-05-07 19:46 | 52.75119 | 21.43745 | 1420 ft | 109 kts | 64° |
| 2026-05-07 19:46 | 52.75413 | 21.44900 | 1422 ft | 109 kts | 64° |
| 2026-05-07 19:47 | 52.75708 | 21.46056 | 1422 ft | 108 kts | 65° |
| 2026-05-07 19:47 | 52.75998 | 21.47203 | 1422 ft | 109 kts | 65° |
| 2026-05-07 19:47 | 52.76290 | 21.48355 | 1418 ft | 109 kts | 65° |
| 2026-05-07 19:47 | 52.76583 | 21.49504 | 1421 ft | 108 kts | 65° |
| 2026-05-07 19:48 | 52.76870 | 21.50642 | 1419 ft | 107 kts | 64° |
| 2026-05-07 19:48 | 52.77156 | 21.51779 | 1416 ft | 108 kts | 65° |
| 2026-05-07 19:48 | 52.77446 | 21.52913 | 1416 ft | 107 kts | 64° |
| 2026-05-07 19:48 | 52.77733 | 21.54049 | 1422 ft | 108 kts | 64° |
| 2026-05-07 19:49 | 52.78022 | 21.55196 | 1419 ft | 108 kts | 65° |
| 2026-05-07 19:49 | 52.78309 | 21.56329 | 1419 ft | 107 kts | 65° |
| 2026-05-07 19:49 | 52.78595 | 21.57458 | 1421 ft | 106 kts | 65° |
| 2026-05-07 19:49 | 52.78879 | 21.58586 | 1422 ft | 107 kts | 64° |
| 2026-05-07 19:50 | 52.79163 | 21.59716 | 1421 ft | 106 kts | 64° |
| 2026-05-07 19:50 | 52.79446 | 21.60833 | 1420 ft | 105 kts | 64° |
| 2026-05-07 19:50 | 52.79730 | 21.61961 | 1423 ft | 107 kts | 64° |
| 2026-05-07 19:50 | 52.80013 | 21.63089 | 1418 ft | 106 kts | 65° |
| 2026-05-07 19:51 | 52.80300 | 21.64217 | 1418 ft | 106 kts | 64° |
| 2026-05-07 19:51 | 52.80578 | 21.65332 | 1426 ft | 107 kts | 65° |
| 2026-05-07 19:51 | 52.80865 | 21.66469 | 1436 ft | 108 kts | 64° |
| 2026-05-07 19:51 | 52.81152 | 21.67611 | 1437 ft | 108 kts | 64° |
| 2026-05-07 19:52 | 52.81443 | 21.68773 | 1434 ft | 108 kts | 64° |
| 2026-05-07 19:52 | 52.81727 | 21.69899 | 1425 ft | 107 kts | 65° |
| 2026-05-07 19:52 | 52.82011 | 21.71026 | 1424 ft | 106 kts | 65° |
| 2026-05-07 19:52 | 52.82295 | 21.72152 | 1421 ft | 106 kts | 64° |
| 2026-05-07 19:53 | 52.82578 | 21.73286 | 1410 ft | 108 kts | 64° |
| 2026-05-07 19:53 | 52.82798 | 21.74445 | 1292 ft | 105 kts | 77° |
| 2026-05-07 19:53 | 52.82890 | 21.75653 | 1173 ft | 105 kts | 90° |
| 2026-05-07 19:53 | 52.82821 | 21.76842 | 1075 ft | 107 kts | 94° |
| 2026-05-07 19:54 | 52.82719 | 21.78051 | 953 ft | 108 kts | 97° |
| 2026-05-07 19:54 | 52.82728 | 21.79182 | 931 ft | 87 kts | 25° |
| 2026-05-07 19:54 | 52.83275 | 21.79234 | 697 ft | 68 kts | 358° |
| 2026-05-07 19:54 | 52.83629 | 21.78900 | 542 ft | 75 kts | 280° |
| 2026-05-07 19:55 | 52.83670 | 21.78233 | 406 ft | 40 kts | 282° |
| 2026-05-07 19:55 | 52.83690 | 21.77919 | 408 ft | 24 kts | 274° |
| 2026-05-07 19:55 | 52.83709 | 21.77655 | 409 ft | 22 kts | 275° |
| 2026-05-07 19:55 | 52.83673 | 21.77450 | 405 ft | 20 kts | 179° |
| 2026-05-07 19:56 | 52.83643 | 21.77471 | 407 ft | 0 kts | 310° |